Time;durP1;ratioP1;P1;durP2;ratioP2;P2;SDS_P1;SDS_P2;PMS_P1;PMS_P2;Temp;Humidity;BMP_temperature;BMP_pressure;BME280_temperature;BME280_humidity;BME280_pressure;Samples;Min_cycle;Max_cycle;Signal;HPM_P1;HPM_P2
2023/05/15 00:02:09;;;;;;;19.95;18.85;;;;;;;;;;4996379;28;20034;-62
2023/05/15 00:04:34;;;;;;;23.77;22.48;;;;;;;;;;4995990;28;20050;-62
2023/05/15 00:07:00;;;;;;;25.92;24.55;;;;;;;;;;4996483;28;20030;-53
2023/05/15 00:09:25;;;;;;;25.25;23.92;;;;;;;;;;4996395;28;20041;-50
2023/05/15 00:11:50;;;;;;;25.05;23.67;;;;;;;;;;5001080;28;20039;-51
2023/05/15 00:14:16;;;;;;;24.92;23.60;;;;;;;;;;4996730;28;20092;-52
2023/05/15 00:16:41;;;;;;;27.77;26.27;;;;;;;;;;4995779;28;20038;-50
2023/05/15 00:19:07;;;;;;;24.60;23.30;;;;;;;;;;4998392;28;20026;-52
2023/05/15 00:21:32;;;;;;;24.25;22.95;;;;;;;;;;4998654;28;20044;-62
2023/05/15 00:23:57;;;;;;;26.02;24.63;;;;;;;;;;4998890;28;20044;-48
2023/05/15 00:26:23;;;;;;;24.60;23.27;;;;;;;;;;4996830;28;20152;-50
2023/05/15 00:28:48;;;;;;;24.67;23.38;;;;;;;;;;4996583;28;20030;-62
2023/05/15 00:31:14;;;;;;;25.23;23.83;;;;;;;;;;4996150;28;20038;-62
2023/05/15 00:33:39;;;;;;;23.00;21.77;;;;;;;;;;4998097;28;20117;-52
2023/05/15 00:36:05;;;;;;;22.45;21.25;;;;;;;;;;4999722;28;20029;-51
2023/05/15 00:38:32;;;;;;;23.02;21.73;;;;;;;;;;4998497;28;20456;-49
2023/05/15 00:40:58;;;;;;;21.60;20.30;;;;;;;;;;4994521;28;20041;-50
2023/05/15 00:43:24;;;;;;;24.90;23.60;;;;;;;;;;4997198;28;20368;-48
2023/05/15 00:45:52;;;;;;;21.38;20.23;;;;;;;;;;4995935;28;20036;-51
2023/05/15 00:48:18;;;;;;;23.08;21.70;;;;;;;;;;4995478;28;20034;-51
2023/05/15 00:50:44;;;;;;;23.52;22.27;;;;;;;;;;4994219;28;20040;-50
2023/05/15 00:53:10;;;;;;;22.80;21.50;;;;;;;;;;4996848;28;20037;-50
2023/05/15 00:55:36;;;;;;;23.75;22.45;;;;;;;;;;4995119;28;20038;-63
2023/05/15 00:58:02;;;;;;;23.90;22.63;;;;;;;;;;4997314;28;20049;-62
2023/05/15 01:00:30;;;;;;;21.70;20.48;;;;;;;;;;4994869;28;20367;-62
2023/05/15 01:02:56;;;;;;;22.02;20.83;;;;;;;;;;4997714;28;20139;-62
2023/05/15 01:05:21;;;;;;;21.75;20.58;;;;;;;;;;4993004;28;20128;-62
2023/05/15 01:07:54;;;;;;;23.23;21.98;;;;;;;;;;4979070;28;20064;-62
2023/05/15 01:10:20;;;;;;;24.08;22.48;;;;;;;;;;4996019;28;20050;-61
2023/05/15 01:12:46;;;;;;;23.05;21.83;;;;;;;;;;4998508;28;20125;-50
2023/05/15 01:15:12;;;;;;;23.83;22.55;;;;;;;;;;4996539;28;20484;-52
2023/05/15 01:17:37;;;;;;;21.48;20.27;;;;;;;;;;4989662;28;20120;-50
2023/05/15 01:20:06;;;;;;;22.27;21.00;;;;;;;;;;4999210;28;20061;-53
2023/05/15 01:22:50;;;;;;;20.58;19.45;;;;;;;;;;4999320;28;20080;-49
2023/05/15 01:25:35;;;;;;;20.20;19.08;;;;;;;;;;5000398;28;20423;-62
2023/05/15 01:28:27;;;;;;;17.30;16.30;;;;;;;;;;4999036;28;20665;-62
2023/05/15 01:30:54;;;;;;;17.45;16.45;;;;;;;;;;5002832;28;20038;-51
2023/05/15 01:33:22;;;;;;;17.55;16.55;;;;;;;;;;5000304;28;20069;-50
2023/05/15 01:36:13;;;;;;;18.38;17.38;;;;;;;;;;4998576;28;20109;-62
2023/05/15 01:38:44;;;;;;;15.25;14.35;;;;;;;;;;4997457;28;20074;-62
2023/05/15 01:41:15;;;;;;;15.20;14.32;;;;;;;;;;5000803;28;20144;-62
2023/05/15 01:43:44;;;;;;;15.90;15.00;;;;;;;;;;5001054;28;20045;-49
2023/05/15 01:46:13;;;;;;;15.98;15.07;;;;;;;;;;5001920;28;20616;-52
2023/05/15 01:48:40;;;;;;;13.30;12.52;;;;;;;;;;4998060;28;20042;-53
2023/05/15 01:51:08;;;;;;;14.20;13.40;;;;;;;;;;5000039;28;20760;-62
2023/05/15 01:53:35;;;;;;;15.13;14.23;;;;;;;;;;4997323;28;20057;-62
2023/05/15 01:56:02;;;;;;;14.95;14.05;;;;;;;;;;5000098;28;20053;-62
2023/05/15 01:58:29;;;;;;;15.55;14.65;;;;;;;;;;4993666;28;20594;-62
2023/05/15 02:00:55;;;;;;;13.25;12.48;;;;;;;;;;4999254;28;20037;-62
2023/05/15 02:03:20;;;;;;;14.20;13.32;;;;;;;;;;5000335;28;20037;-62
2023/05/15 02:05:46;;;;;;;13.13;12.30;;;;;;;;;;4998472;28;20793;-62
2023/05/15 02:08:12;;;;;;;13.13;12.32;;;;;;;;;;4998617;28;20038;-62
2023/05/15 02:10:38;;;;;;;12.25;11.45;;;;;;;;;;5000668;28;20042;-52
2023/05/15 02:13:07;;;;;;;11.80;11.10;;;;;;;;;;4999746;28;20456;-62
2023/05/15 02:15:33;;;;;;;11.82;11.13;;;;;;;;;;4998403;28;20038;-62
2023/05/15 02:17:58;;;;;;;12.10;11.40;;;;;;;;;;5000205;28;20522;-62
2023/05/15 02:20:24;;;;;;;13.13;12.32;;;;;;;;;;5001819;28;20042;-62
2023/05/15 02:22:49;;;;;;;11.38;10.68;;;;;;;;;;5000975;28;20037;-62
2023/05/15 02:25:14;;;;;;;11.55;10.85;;;;;;;;;;5000493;28;20591;-62
2023/05/15 02:27:46;;;;;;;11.82;11.13;;;;;;;;;;4996942;28;20134;-62
2023/05/15 02:30:18;;;;;;;11.52;10.80;;;;;;;;;;4998262;28;20601;-62
2023/05/15 02:32:53;;;;;;;10.93;10.23;;;;;;;;;;4999568;28;20365;-61
2023/05/15 02:35:52;;;;;;;10.52;9.93;;;;;;;;;;4997723;28;20099;-62
2023/05/15 02:38:42;;;;;;;11.25;10.55;;;;;;;;;;4995711;28;20809;-62
2023/05/15 02:41:09;;;;;;;12.03;11.33;;;;;;;;;;4997613;28;20042;-62
2023/05/15 02:43:35;;;;;;;12.30;11.50;;;;;;;;;;4999612;28;20045;-62
2023/05/15 02:46:02;;;;;;;13.00;12.20;;;;;;;;;;4981044;28;20140;-62
2023/05/15 02:48:28;;;;;;;13.30;12.50;;;;;;;;;;4996651;28;20037;-62
2023/05/15 02:50:54;;;;;;;14.57;13.68;;;;;;;;;;4996824;28;20034;-62
2023/05/15 02:53:19;;;;;;;14.13;13.32;;;;;;;;;;4999140;28;20041;-52
2023/05/15 02:55:44;;;;;;;15.15;14.25;;;;;;;;;;4997580;28;20036;-51
2023/05/15 02:58:10;;;;;;;13.88;13.07;;;;;;;;;;4997208;28;20095;-53
2023/05/15 03:00:35;;;;;;;14.90;14.00;;;;;;;;;;4997817;28;20034;-62
2023/05/15 03:03:01;;;;;;;15.70;14.80;;;;;;;;;;4994896;28;20065;-62
2023/05/15 03:05:26;;;;;;;15.18;14.27;;;;;;;;;;4996838;28;20052;-62
2023/05/15 03:07:51;;;;;;;14.73;13.90;;;;;;;;;;5000628;28;20022;-49
2023/05/15 03:10:17;;;;;;;14.32;13.52;;;;;;;;;;4999169;28;20123;-49
2023/05/15 03:12:42;;;;;;;14.27;13.40;;;;;;;;;;4997529;28;20042;-50
2023/05/15 03:15:07;;;;;;;14.20;13.40;;;;;;;;;;4995181;28;20563;-62
2023/05/15 03:17:33;;;;;;;16.00;15.10;;;;;;;;;;4996250;28;20096;-63
2023/05/15 03:19:58;;;;;;;16.23;15.13;;;;;;;;;;4997472;28;20070;-62
2023/05/15 03:22:24;;;;;;;16.10;14.93;;;;;;;;;;4996244;28;20468;-63
2023/05/15 03:24:49;;;;;;;14.85;14.05;;;;;;;;;;4987595;28;20058;-62
2023/05/15 03:27:15;;;;;;;15.35;14.45;;;;;;;;;;4996385;28;20150;-62
2023/05/15 03:29:41;;;;;;;14.13;13.32;;;;;;;;;;4999239;28;20065;-62
2023/05/15 03:32:06;;;;;;;14.80;13.95;;;;;;;;;;4999210;28;20092;-63
2023/05/15 03:34:32;;;;;;;14.85;13.95;;;;;;;;;;4997523;28;20042;-62
2023/05/15 03:36:57;;;;;;;13.73;12.93;;;;;;;;;;4996985;28;20041;-49
2023/05/15 03:39:22;;;;;;;13.80;13.00;;;;;;;;;;4995293;28;20038;-51
2023/05/15 03:41:48;;;;;;;14.55;13.65;;;;;;;;;;5001849;28;20040;-62
2023/05/15 03:44:13;;;;;;;15.70;14.23;;;;;;;;;;4997594;28;20026;-50
2023/05/15 03:46:38;;;;;;;14.40;13.60;;;;;;;;;;4997125;28;20038;-63
2023/05/15 03:49:03;;;;;;;13.77;12.98;;;;;;;;;;4994707;28;20034;-62
2023/05/15 03:51:29;;;;;;;14.05;13.25;;;;;;;;;;4994641;28;20535;-52
2023/05/15 03:53:54;;;;;;;14.65;13.80;;;;;;;;;;4998218;28;20041;-62
2023/05/15 03:56:20;;;;;;;13.73;12.93;;;;;;;;;;4998056;28;20408;-62
2023/05/15 03:58:45;;;;;;;14.30;13.50;;;;;;;;;;4998765;28;20460;-51
2023/05/15 04:01:10;;;;;;;15.65;14.75;;;;;;;;;;4995735;28;20368;-52
2023/05/15 04:03:36;;;;;;;14.48;13.68;;;;;;;;;;4994299;28;20073;-62
2023/05/15 04:06:01;;;;;;;13.85;13.05;;;;;;;;;;4996317;28;20080;-49
2023/05/15 04:08:26;;;;;;;14.40;13.60;;;;;;;;;;4995445;28;20580;-51
2023/05/15 04:10:52;;;;;;;14.68;13.77;;;;;;;;;;4994293;28;20046;-53
2023/05/15 04:13:17;;;;;;;13.05;12.30;;;;;;;;;;4994166;28;20038;-53
2023/05/15 04:15:43;;;;;;;13.80;13.00;;;;;;;;;;4995913;28;20580;-52
2023/05/15 04:18:08;;;;;;;13.30;12.50;;;;;;;;;;4996466;28;20371;-52
2023/05/15 04:20:33;;;;;;;12.60;11.80;;;;;;;;;;4988748;28;20038;-48
2023/05/15 04:22:59;;;;;;;12.10;11.40;;;;;;;;;;4996182;28;20046;-50
2023/05/15 04:25:24;;;;;;;12.13;11.43;;;;;;;;;;4991994;28;20081;-62
2023/05/15 04:27:50;;;;;;;11.75;11.05;;;;;;;;;;4997733;28;20593;-63
2023/05/15 04:30:16;;;;;;;11.80;11.05;;;;;;;;;;4994441;28;20069;-62
2023/05/15 04:32:41;;;;;;;12.30;11.55;;;;;;;;;;4995277;28;20053;-62
2023/05/15 04:35:09;;;;;;;11.05;10.35;;;;;;;;;;4996592;28;20108;-62
2023/05/15 04:37:35;;;;;;;11.07;10.38;;;;;;;;;;4997364;28;20462;-52
2023/05/15 04:40:00;;;;;;;11.40;10.70;;;;;;;;;;4998114;28;20052;-53
2023/05/15 04:42:25;;;;;;;11.52;10.82;;;;;;;;;;4995881;28;20435;-62
2023/05/15 04:44:52;;;;;;;12.18;11.48;;;;;;;;;;4981681;28;20037;-51
2023/05/15 04:47:17;;;;;;;12.20;11.50;;;;;;;;;;4999342;28;20034;-62
2023/05/15 04:49:43;;;;;;;12.57;11.77;;;;;;;;;;4995363;28;20123;-63
2023/05/15 04:52:08;;;;;;;13.27;12.48;;;;;;;;;;4996383;28;20053;-51
2023/05/15 04:54:33;;;;;;;12.93;12.13;;;;;;;;;;4978740;28;20033;-62
2023/05/15 04:56:59;;;;;;;13.70;12.90;;;;;;;;;;4998049;28;20045;-62
2023/05/15 04:59:24;;;;;;;14.13;13.32;;;;;;;;;;4996973;28;20034;-57
2023/05/15 05:01:50;;;;;;;13.05;12.20;;;;;;;;;;4990287;28;20341;-49
2023/05/15 05:04:18;;;;;;;13.02;12.23;;;;;;;;;;4997323;28;20049;-52
2023/05/15 05:06:44;;;;;;;12.95;12.15;;;;;;;;;;4998206;28;20029;-62
2023/05/15 05:09:09;;;;;;;11.75;11.05;;;;;;;;;;4998232;28;20038;-62
2023/05/15 05:11:35;;;;;;;11.48;10.77;;;;;;;;;;4996955;28;20732;-62
2023/05/15 05:14:00;;;;;;;12.52;11.73;;;;;;;;;;4994465;28;20033;-62
2023/05/15 05:16:26;;;;;;;10.82;10.13;;;;;;;;;;4994528;28;20042;-52
2023/05/15 05:18:51;;;;;;;15.10;11.20;;;;;;;;;;4995335;28;20025;-49
2023/05/15 05:21:16;;;;;;;10.65;9.95;;;;;;;;;;4998072;28;20079;-49
2023/05/15 05:23:42;;;;;;;11.02;10.32;;;;;;;;;;4999795;28;20042;-62
2023/05/15 05:26:07;;;;;;;11.30;10.60;;;;;;;;;;4997445;28;20117;-62
2023/05/15 05:28:33;;;;;;;13.32;12.43;;;;;;;;;;4995183;28;20481;-62
2023/05/15 05:30:58;;;;;;;12.52;11.73;;;;;;;;;;4995940;28;20491;-62
2023/05/15 05:33:23;;;;;;;12.77;12.07;;;;;;;;;;4979621;28;20124;-62
2023/05/15 05:35:50;;;;;;;14.45;13.60;;;;;;;;;;4991555;28;20025;-51
2023/05/15 05:38:15;;;;;;;12.85;12.05;;;;;;;;;;4997601;28;20061;-61
2023/05/15 05:40:41;;;;;;;13.68;12.88;;;;;;;;;;4993466;28;20575;-62
2023/05/15 05:43:07;;;;;;;12.07;11.38;;;;;;;;;;4997175;28;20662;-61
2023/05/15 05:45:32;;;;;;;14.65;13.63;;;;;;;;;;4994409;28;20038;-62
2023/05/15 05:47:57;;;;;;;15.45;14.55;;;;;;;;;;4994394;28;20073;-62
2023/05/15 05:50:23;;;;;;;17.95;16.92;;;;;;;;;;4994430;28;20065;-50
2023/05/15 05:52:49;;;;;;;23.95;22.67;;;;;;;;;;4992427;28;20034;-50
2023/05/15 05:55:14;;;;;;;25.20;23.88;;;;;;;;;;4995524;28;20114;-51
2023/05/15 05:57:40;;;;;;;32.60;30.85;;;;;;;;;;4994476;28;20076;-62
2023/05/15 06:00:09;;;;;;;37.53;35.58;;;;;;;;;;4996718;28;20061;-62
2023/05/15 06:02:38;;;;;;;39.40;37.28;;;;;;;;;;4993258;28;20060;-50
2023/05/15 06:05:05;;;;;;;36.72;34.83;;;;;;;;;;4995142;28;20092;-52
2023/05/15 06:07:30;;;;;;;31.55;29.85;;;;;;;;;;4999947;28;20027;-62
2023/05/15 06:09:56;;;;;;;26.20;24.80;;;;;;;;;;5001400;28;20553;-62
2023/05/15 06:12:21;;;;;;;21.75;20.55;;;;;;;;;;5001020;28;20047;-62
2023/05/15 06:14:47;;;;;;;20.58;19.40;;;;;;;;;;5000394;28;21863;-62
2023/05/15 06:17:12;;;;;;;16.33;15.43;;;;;;;;;;4996166;28;20035;-62
2023/05/15 06:19:37;;;;;;;11.63;10.93;;;;;;;;;;4998810;28;20042;-62
2023/05/15 06:22:03;;;;;;;11.65;10.95;;;;;;;;;;4982025;28;20545;-52
2023/05/15 06:24:28;;;;;;;10.90;10.20;;;;;;;;;;4997938;28;20042;-52
2023/05/15 06:26:54;;;;;;;12.38;11.68;;;;;;;;;;4999096;28;20124;-52
2023/05/15 06:29:20;;;;;;;12.38;11.57;;;;;;;;;;5002992;28;20041;-51
2023/05/15 06:31:45;;;;;;;13.15;12.35;;;;;;;;;;4998623;28;20665;-49
2023/05/15 06:34:10;;;;;;;17.73;16.73;;;;;;;;;;4994394;28;20034;-54
2023/05/15 06:36:36;;;;;;;21.05;19.85;;;;;;;;;;4983477;28;20030;-62
2023/05/15 06:39:01;;;;;;;16.20;15.30;;;;;;;;;;5001354;28;20042;-63
2023/05/15 06:41:27;;;;;;;18.90;17.88;;;;;;;;;;5003727;28;20496;-51
2023/05/15 06:43:53;;;;;;;24.33;23.02;;;;;;;;;;4999302;28;20037;-49
2023/05/15 06:46:19;;;;;;;28.20;26.70;;;;;;;;;;4998198;28;20574;-63
2023/05/15 06:48:46;;;;;;;26.02;24.63;;;;;;;;;;4979439;28;20073;-62
2023/05/15 06:51:11;;;;;;;28.52;26.95;;;;;;;;;;4985710;28;20061;-62
2023/05/15 06:53:36;;;;;;;27.88;26.38;;;;;;;;;;5001906;28;20062;-62
2023/05/15 06:56:02;;;;;;;28.40;26.85;;;;;;;;;;4997731;28;20038;-62
2023/05/15 06:58:27;;;;;;;29.00;27.42;;;;;;;;;;4979922;28;20045;-62
2023/05/15 07:00:52;;;;;;;27.92;26.45;;;;;;;;;;4995105;28;20045;-62
2023/05/15 07:03:18;;;;;;;29.75;28.15;;;;;;;;;;4998595;28;20037;-52
2023/05/15 07:05:44;;;;;;;29.58;28.05;;;;;;;;;;4998201;28;20069;-62
2023/05/15 07:08:09;;;;;;;29.13;27.63;;;;;;;;;;4999052;28;20056;-62
2023/05/15 07:10:35;;;;;;;25.98;24.52;;;;;;;;;;5000208;28;20034;-52
2023/05/15 07:13:00;;;;;;;21.73;20.52;;;;;;;;;;4994736;28;20091;-52
2023/05/15 07:15:25;;;;;;;24.98;23.55;;;;;;;;;;4997653;28;20164;-62
2023/05/15 07:17:50;;;;;;;28.30;26.80;;;;;;;;;;4998826;28;20048;-62
2023/05/15 07:20:16;;;;;;;24.83;23.50;;;;;;;;;;4997521;28;20038;-62
2023/05/15 07:22:41;;;;;;;18.83;17.83;;;;;;;;;;4997169;28;20046;-62
2023/05/15 07:25:07;;;;;;;18.98;17.98;;;;;;;;;;4996764;28;20093;-50
2023/05/15 07:27:32;;;;;;;21.67;20.50;;;;;;;;;;5001262;28;20056;-51
2023/05/15 07:29:58;;;;;;;23.80;22.52;;;;;;;;;;4997832;28;20046;-62
2023/05/15 07:32:23;;;;;;;16.65;15.75;;;;;;;;;;4994228;28;20045;-62
2023/05/15 07:34:48;;;;;;;17.50;16.50;;;;;;;;;;4996464;28;20048;-62
2023/05/15 07:37:14;;;;;;;16.77;15.77;;;;;;;;;;4997508;28;20038;-62
2023/05/15 07:39:39;;;;;;;14.88;13.98;;;;;;;;;;4995500;28;20370;-62
2023/05/15 07:42:05;;;;;;;13.63;12.82;;;;;;;;;;4995899;28;20483;-62
2023/05/15 07:44:30;;;;;;;12.85;12.10;;;;;;;;;;4994096;28;20314;-63
2023/05/15 07:46:57;;;;;;;11.70;11.00;;;;;;;;;;4994666;28;20038;-62
2023/05/15 07:49:22;;;;;;;12.45;11.75;;;;;;;;;;4995209;28;20053;-62
2023/05/15 07:51:47;;;;;;;12.15;11.45;;;;;;;;;;4996339;28;20470;-63
2023/05/15 07:54:13;;;;;;;12.73;12.02;;;;;;;;;;4997578;28;20042;-63
2023/05/15 07:56:38;;;;;;;12.25;11.55;;;;;;;;;;4994322;28;20026;-62
2023/05/15 07:59:03;;;;;;;13.10;12.30;;;;;;;;;;4993176;28;20057;-63
2023/05/15 08:01:29;;;;;;;13.70;12.90;;;;;;;;;;4997782;28;20030;-62
2023/05/15 08:03:54;;;;;;;13.27;12.48;;;;;;;;;;4995876;28;20030;-62
2023/05/15 08:06:20;;;;;;;12.93;12.15;;;;;;;;;;4998543;28;20033;-63
2023/05/15 08:08:45;;;;;;;13.23;12.43;;;;;;;;;;4995651;28;20580;-63
2023/05/15 08:11:10;;;;;;;14.98;13.98;;;;;;;;;;4998738;28;20096;-50
2023/05/15 08:13:35;;;;;;;13.93;13.13;;;;;;;;;;4997303;28;20053;-53
2023/05/15 08:16:01;;;;;;;14.10;13.20;;;;;;;;;;4999975;28;20048;-59
2023/05/15 08:18:26;;;;;;;15.68;14.68;;;;;;;;;;4996644;28;20034;-53
2023/05/15 08:20:52;;;;;;;15.60;14.70;;;;;;;;;;4997340;28;20049;-53
2023/05/15 08:23:17;;;;;;;15.35;14.45;;;;;;;;;;4995946;28;20463;-52
2023/05/15 08:25:42;;;;;;;14.52;13.73;;;;;;;;;;4996047;28;20041;-53
2023/05/15 08:28:09;;;;;;;15.70;14.80;;;;;;;;;;4995277;28;20026;-51
2023/05/15 08:30:35;;;;;;;15.82;14.93;;;;;;;;;;4996093;28;20356;-51
2023/05/15 08:33:00;;;;;;;15.88;14.98;;;;;;;;;;4980874;28;20034;-50
2023/05/15 08:35:25;;;;;;;16.13;15.23;;;;;;;;;;4982843;28;20036;-53
2023/05/15 08:37:51;;;;;;;16.80;15.80;;;;;;;;;;4996564;28;21284;-51
2023/05/15 08:40:16;;;;;;;16.55;15.20;;;;;;;;;;4997953;28;20479;-49
2023/05/15 08:42:44;;;;;;;15.93;15.02;;;;;;;;;;4997742;28;20133;-49
2023/05/15 08:45:12;;;;;;;15.55;14.65;;;;;;;;;;4995112;28;20034;-51
2023/05/15 08:47:40;;;;;;;15.63;14.73;;;;;;;;;;4995463;28;20137;-52
2023/05/15 08:50:14;;;;;;;16.70;15.77;;;;;;;;;;5000213;28;20042;-50
2023/05/15 08:52:45;;;;;;;17.17;16.17;;;;;;;;;;4997478;28;20037;-50
2023/05/15 08:55:11;;;;;;;17.05;16.05;;;;;;;;;;4994644;28;20045;-53
2023/05/15 08:57:37;;;;;;;20.13;19.02;;;;;;;;;;4997437;28;20064;-63
2023/05/15 09:00:13;;;;;;;18.80;17.73;;;;;;;;;;4996596;28;20040;-63
2023/05/15 09:02:39;;;;;;;18.52;17.50;;;;;;;;;;4995863;28;20120;-63
2023/05/15 09:05:05;;;;;;;18.45;17.45;;;;;;;;;;4994997;28;20075;-48
2023/05/15 09:07:31;;;;;;;18.52;17.50;;;;;;;;;;4997484;28;20030;-50
2023/05/15 09:09:58;;;;;;;19.98;18.88;;;;;;;;;;4994354;28;20044;-52
2023/05/15 09:12:24;;;;;;;19.55;18.45;;;;;;;;;;4997495;28;20041;-52
2023/05/15 09:14:50;;;;;;;22.88;21.48;;;;;;;;;;4995790;28;20421;-63
2023/05/15 09:17:15;;;;;;;30.52;28.92;;;;;;;;;;4992591;28;20042;-51
2023/05/15 09:19:41;;;;;;;28.75;27.17;;;;;;;;;;4993082;28;20037;-51
2023/05/15 09:22:17;;;;;;;32.00;30.27;;;;;;;;;;4985819;28;20033;-48
2023/05/15 09:24:43;;;;;;;24.70;23.30;;;;;;;;;;4996311;28;20037;-52
2023/05/15 09:27:10;;;;;;;31.55;29.92;;;;;;;;;;4994465;28;20021;-50
2023/05/15 09:29:37;;;;;;;43.50;41.30;;;;;;;;;;4998392;28;20488;-62
2023/05/15 09:32:04;;;;;;;35.03;33.17;;;;;;;;;;4996456;28;20352;-50
2023/05/15 09:34:35;;;;;;;43.03;40.75;;;;;;;;;;4994606;28;20468;-50
2023/05/15 09:37:03;;;;;;;60.92;57.88;;;;;;;;;;4996342;28;20158;-62
2023/05/15 09:39:29;;;;;;;50.97;48.35;;;;;;;;;;4997810;28;20045;-62
2023/05/15 09:42:15;;;;;;;73.97;70.25;;;;;;;;;;4998171;28;20037;-48
2023/05/15 09:44:42;;;;;;;68.43;65.00;;;;;;;;;;4996268;28;20042;-48
2023/05/15 09:47:12;;;;;;;74.20;70.50;;;;;;;;;;5000727;28;20054;-49
2023/05/15 09:49:38;;;;;;;;;;;;;;;;;;5001349;28;20727;-49
2023/05/15 09:52:08;;;;;;;84.93;80.53;;;;;;;;;;5001303;28;19918;-52
2023/05/15 09:54:34;;;;;;;54.63;51.78;;;;;;;;;;5000303;28;20026;-62
2023/05/15 09:57:07;;;;;;;43.75;41.45;;;;;;;;;;4995469;28;20033;-52
2023/05/15 09:59:33;;;;;;;42.22;40.03;;;;;;;;;;4998329;28;20045;-51
2023/05/15 10:01:58;;;;;;;61.08;57.92;;;;;;;;;;4999092;28;20042;-48
2023/05/15 10:04:25;;;;;;;36.05;34.17;;;;;;;;;;5002266;28;20050;-52
2023/05/15 10:06:52;;;;;;;26.40;25.00;;;;;;;;;;4997539;28;20058;-50
2023/05/15 10:09:17;;;;;;;22.85;21.65;;;;;;;;;;4978966;28;20052;-63
2023/05/15 10:11:49;;;;;;;46.33;43.95;;;;;;;;;;4999316;28;20459;-62
2023/05/15 10:14:15;;;;;;;38.92;36.58;;;;;;;;;;5001577;28;20127;-63
2023/05/15 10:16:41;;;;;;;31.45;29.75;;;;;;;;;;5001294;28;20156;-53
2023/05/15 10:19:09;;;;;;;23.55;21.95;;;;;;;;;;4999419;28;20478;-50
2023/05/15 10:21:36;;;;;;;23.30;21.98;;;;;;;;;;5000169;28;20042;-63
2023/05/15 10:24:03;;;;;;;35.33;33.42;;;;;;;;;;4999801;28;20033;-51
2023/05/15 10:26:36;;;;;;;57.58;54.67;;;;;;;;;;5000181;28;20092;-62
2023/05/15 10:29:06;;;;;;;58.47;55.50;;;;;;;;;;4997593;28;20145;-49
2023/05/15 10:31:32;;;;;;;53.58;50.70;;;;;;;;;;4980060;28;20041;-63
2023/05/15 10:33:59;;;;;;;55.40;52.60;;;;;;;;;;4992857;28;20038;-51
2023/05/15 10:36:25;;;;;;;51.33;48.55;;;;;;;;;;4993496;28;20404;-51
2023/05/15 10:38:51;;;;;;;68.65;65.18;;;;;;;;;;4993425;28;20069;-52
2023/05/15 10:41:19;;;;;;;68.85;65.38;;;;;;;;;;4999627;28;20053;-49
2023/05/15 10:43:45;;;;;;;72.32;68.47;;;;;;;;;;4999228;28;20100;-50
2023/05/15 10:46:12;;;;;;;69.57;65.88;;;;;;;;;;4998899;28;20522;-54
2023/05/15 10:48:38;;;;;;;77.20;73.30;;;;;;;;;;4998169;28;20033;-49
2023/05/15 10:51:04;;;;;;;60.25;57.22;;;;;;;;;;4998498;28;20038;-50
2023/05/15 10:53:31;;;;;;;58.75;55.80;;;;;;;;;;4998755;28;20576;-50
2023/05/15 10:55:56;;;;;;;67.93;64.47;;;;;;;;;;4998150;28;20532;-51
2023/05/15 10:58:23;;;;;;;39.85;37.80;;;;;;;;;;4998171;28;20041;-52
2023/05/15 11:00:48;;;;;;;71.13;67.55;;;;;;;;;;5001111;28;20040;-50
2023/05/15 11:03:14;;;;;;;67.85;64.43;;;;;;;;;;4996870;28;20029;-52
2023/05/15 11:06:07;;;;;;;67.05;63.38;;;;;;;;;;4997102;28;20038;-54
2023/05/15 11:08:32;;;;;;;53.17;50.42;;;;;;;;;;4993976;28;20038;-49
2023/05/15 11:10:58;;;;;;;66.55;63.08;;;;;;;;;;4997259;28;20030;-51
2023/05/15 11:13:23;;;;;;;51.92;49.17;;;;;;;;;;4997106;28;20041;-50
2023/05/15 11:15:49;;;;;;;52.15;49.35;;;;;;;;;;4995826;28;20464;-50
2023/05/15 11:18:14;;;;;;;33.95;32.00;;;;;;;;;;4995898;28;20069;-51
2023/05/15 11:21:01;;;;;;;38.80;36.72;;;;;;;;;;4995030;28;20042;-49
2023/05/15 11:23:26;;;;;;;56.70;53.78;;;;;;;;;;4998819;28;20042;-51
2023/05/15 11:25:56;;;;;;;53.90;51.00;;;;;;;;;;4997216;28;20053;-50
2023/05/15 11:28:22;;;;;;;58.83;55.80;;;;;;;;;;4998886;28;20061;-51
2023/05/15 11:30:51;;;;;;;61.83;58.65;;;;;;;;;;4995666;28;20025;-54
2023/05/15 11:33:16;;;;;;;50.78;48.17;;;;;;;;;;4995709;28;20478;-51
2023/05/15 11:35:46;;;;;;;56.33;53.42;;;;;;;;;;5000961;28;20037;-51
2023/05/15 11:38:15;;;;;;;54.03;51.20;;;;;;;;;;4995041;28;20124;-51
2023/05/15 11:40:46;;;;;;;58.03;55.05;;;;;;;;;;4999588;28;20114;-50
2023/05/15 11:43:28;;;;;;;57.83;54.65;;;;;;;;;;4994481;28;20034;-50
2023/05/15 11:45:56;;;;;;;59.08;56.05;;;;;;;;;;4995749;28;20045;-53
2023/05/15 11:48:24;;;;;;;57.67;54.55;;;;;;;;;;4997150;28;20096;-51
2023/05/15 11:50:52;;;;;;;47.15;44.42;;;;;;;;;;4979436;28;20041;-49
2023/05/15 11:53:18;;;;;;;53.70;49.85;;;;;;;;;;4996116;28;20066;-62
2023/05/15 11:55:44;;;;;;;72.03;68.45;;;;;;;;;;4989238;28;20061;-62
2023/05/15 11:58:21;;;;;;;61.60;58.45;;;;;;;;;;4998482;28;20556;-62
2023/05/15 12:00:50;;;;;;;39.90;37.88;;;;;;;;;;4985970;28;20084;-62
2023/05/15 12:03:32;;;;;;;44.70;42.30;;;;;;;;;;4994689;28;20095;-62
2023/05/15 12:06:00;;;;;;;25.75;24.23;;;;;;;;;;4997576;28;20071;-62
2023/05/15 12:08:34;;;;;;;38.17;36.15;;;;;;;;;;4992585;28;20041;-62
2023/05/15 12:11:00;;;;;;;42.72;39.92;;;;;;;;;;4998137;28;20092;-62
2023/05/15 12:13:25;;;;;;;29.05;27.35;;;;;;;;;;4991899;28;20570;-62
2023/05/15 12:15:51;;;;;;;40.72;38.63;;;;;;;;;;4988891;28;20186;-62
2023/05/15 12:18:16;;;;;;;35.97;34.05;;;;;;;;;;4993427;28;20448;-62
2023/05/15 12:20:45;;;;;;;34.05;32.17;;;;;;;;;;4996949;28;20037;-62
2023/05/15 12:23:14;;;;;;;24.92;23.60;;;;;;;;;;4996646;28;20522;-62
2023/05/15 12:25:40;;;;;;;26.05;24.65;;;;;;;;;;4991436;28;20076;-62
2023/05/15 12:28:05;;;;;;;27.02;25.60;;;;;;;;;;4997445;28;20061;-62
2023/05/15 12:30:32;;;;;;;26.02;24.63;;;;;;;;;;4995365;28;20044;-63
2023/05/15 12:33:02;;;;;;;42.58;40.38;;;;;;;;;;4994711;28;20096;-62
2023/05/15 12:35:27;;;;;;;40.83;38.67;;;;;;;;;;4999008;28;20813;-63
2023/05/15 12:37:53;;;;;;;44.67;42.35;;;;;;;;;;4998822;28;20125;-62
2023/05/15 12:40:19;;;;;;;37.80;35.80;;;;;;;;;;4997022;28;20030;-51
2023/05/15 12:42:45;;;;;;;43.53;41.28;;;;;;;;;;4995092;28;20059;-62
2023/05/15 12:45:16;;;;;;;48.53;46.05;;;;;;;;;;4997548;28;20384;-62
2023/05/15 12:47:43;;;;;;;44.08;41.78;;;;;;;;;;4996863;28;20118;-49
2023/05/15 12:50:21;;;;;;;50.50;47.90;;;;;;;;;;4994316;28;20129;-50
2023/05/15 12:52:49;;;;;;;41.03;38.92;;;;;;;;;;4997603;28;20368;-62
2023/05/15 12:55:16;;;;;;;36.35;34.45;;;;;;;;;;4994599;28;20041;-62
2023/05/15 12:57:42;;;;;;;36.30;34.40;;;;;;;;;;4997390;28;20228;-52
2023/05/15 13:00:10;;;;;;;34.78;32.97;;;;;;;;;;4980068;28;20037;-62
2023/05/15 13:02:35;;;;;;;36.67;34.67;;;;;;;;;;4997388;28;20451;-62
2023/05/15 13:05:04;;;;;;;36.83;34.92;;;;;;;;;;4999183;28;20048;-62
2023/05/15 13:07:30;;;;;;;37.08;35.17;;;;;;;;;;4994841;28;20026;-62
2023/05/15 13:10:04;;;;;;;34.30;32.50;;;;;;;;;;4997525;28;20504;-51
2023/05/15 13:12:56;;;;;;;36.05;34.15;;;;;;;;;;4995664;28;20045;-51
2023/05/15 13:15:27;;;;;;;33.47;31.58;;;;;;;;;;4992122;28;20046;-53
2023/05/15 13:18:07;;;;;;;34.58;32.70;;;;;;;;;;4997633;28;20081;-63
2023/05/15 13:20:41;;;;;;;35.50;33.63;;;;;;;;;;4999696;28;20137;-62
2023/05/15 13:23:09;;;;;;;33.88;31.98;;;;;;;;;;4984112;28;20061;-52
2023/05/15 13:25:34;;;;;;;34.85;33.00;;;;;;;;;;5001639;28;20038;-49
2023/05/15 13:28:02;;;;;;;49.13;46.63;;;;;;;;;;4998383;28;20080;-52
2023/05/15 13:30:28;;;;;;;61.28;58.08;;;;;;;;;;4999225;28;20034;-52
2023/05/15 13:32:53;;;;;;;44.40;42.10;;;;;;;;;;4997506;28;20057;-49
2023/05/15 13:35:19;;;;;;;62.03;58.90;;;;;;;;;;5002366;28;20137;-62
2023/05/15 13:37:45;;;;;;;39.78;37.70;;;;;;;;;;5001426;28;20137;-62
2023/05/15 13:40:11;;;;;;;30.38;28.58;;;;;;;;;;5000449;28;20030;-52
2023/05/15 13:42:37;;;;;;;22.80;21.50;;;;;;;;;;4996304;28;20484;-52
2023/05/15 13:45:08;;;;;;;26.60;25.20;;;;;;;;;;4991628;28;20034;-62
2023/05/15 13:47:33;;;;;;;25.63;24.23;;;;;;;;;;4996194;28;20038;-53
2023/05/15 13:49:58;;;;;;;26.90;25.48;;;;;;;;;;4998572;28;20038;-52
2023/05/15 13:52:27;;;;;;;24.70;23.35;;;;;;;;;;5000378;28;20752;-51
2023/05/15 13:54:53;;;;;;;76.53;72.70;;;;;;;;;;4999772;28;20037;-53
2023/05/15 13:57:18;;;;;;;73.22;69.55;;;;;;;;;;4999781;28;20034;-62
2023/05/15 13:59:44;;;;;;;59.75;56.60;;;;;;;;;;5001404;28;20792;-62
2023/05/15 14:02:09;;;;;;;32.03;30.33;;;;;;;;;;5000934;28;20415;-62
2023/05/15 14:04:35;;;;;;;24.48;23.15;;;;;;;;;;4998905;28;20030;-53
2023/05/15 14:07:01;;;;;;;24.30;22.70;;;;;;;;;;4996342;28;20042;-62
2023/05/15 14:09:26;;;;;;;28.40;26.90;;;;;;;;;;5002161;28;20447;-62
2023/05/15 14:11:51;;;;;;;24.50;23.20;;;;;;;;;;4995852;28;20366;-62
2023/05/15 14:14:16;;;;;;;32.67;30.95;;;;;;;;;;5001536;28;20042;-62
2023/05/15 14:16:42;;;;;;;30.55;28.92;;;;;;;;;;4999916;28;20034;-52
2023/05/15 14:19:07;;;;;;;31.55;29.90;;;;;;;;;;4997029;28;20044;-54